Time;durP1;ratioP1;P1;durP2;ratioP2;P2;SDS_P1;SDS_P2;PMS_P1;PMS_P2;Temp;Humidity;BMP_temperature;BMP_pressure;BME280_temperature;BME280_humidity;BME280_pressure;Samples;Min_cycle;Max_cycle;Signal;HPM_P1;HPM_P2
2021/11/11 05:17:05;;;;;;;;;66.00;51.00;;;;;;;;6487111;39;14760;-57
2021/11/11 05:23:07;;;;;;;;;55.75;45.25;;;;;;;;6489986;39;8913;-56
2021/11/11 05:29:10;;;;;;;;;57.00;49.25;;;;;;;;6491453;31;8907;-56
2021/11/11 05:35:14;;;;;;;;;51.50;44.00;;;;;;;;6489983;39;8892;-57
2021/11/11 05:41:16;;;;;;;;;59.00;49.00;;;;;;;;6490456;39;8898;-56
2021/11/11 05:47:22;;;;;;;;;59.00;48.25;;;;;;;;6490232;31;8908;-56
2021/11/11 05:53:25;;;;;;;;;63.33;51.67;;;;;;;;6490912;31;8834;-56
2021/11/11 05:59:27;;;;;;;;;58.75;49.00;;;;;;;;6490739;46;8834;-57
2021/11/11 06:05:30;;;;;;;;;65.50;51.75;;;;;;;;6490676;31;9032;-57
2021/11/11 06:11:34;;;;;;;;;60.25;47.00;;;;;;;;6490177;39;8914;-55
2021/11/11 06:17:37;;;;;;;;;60.75;48.50;;;;;;;;6491884;31;8906;-56
2021/11/11 06:23:40;;;;;;;;;58.00;51.25;;;;;;;;6489286;31;8868;-57
2021/11/11 06:29:47;;;;;;;;;53.00;48.00;;;;;;;;6489232;31;8934;-56
2021/11/11 06:35:51;;;;;;;;;65.25;53.25;;;;;;;;6488970;39;8891;-57
2021/11/11 06:41:53;;;;;;;;;69.75;56.75;;;;;;;;6488866;46;8921;-58
2021/11/11 06:47:55;;;;;;;;;67.00;54.67;;;;;;;;6489380;39;9083;-58
2021/11/11 06:53:59;;;;;;;;;70.50;56.25;;;;;;;;6489966;31;8942;-56
2021/11/11 07:00:07;;;;;;;;;60.75;49.00;;;;;;;;6490292;31;8800;-54
2021/11/11 07:06:09;;;;;;;;;53.25;47.00;;;;;;;;6489338;31;9451;-53
2021/11/11 07:12:12;;;;;;;;;56.50;47.25;;;;;;;;6489429;39;9001;-55
2021/11/11 07:18:14;;;;;;;;;58.25;47.00;;;;;;;;6490436;31;8858;-54
2021/11/11 07:24:18;;;;;;;;;53.50;43.50;;;;;;;;6490285;31;9054;-55
2021/11/11 07:30:23;;;;;;;;;49.50;43.25;;;;;;;;6491056;46;8886;-54
2021/11/11 07:36:26;;;;;;;;;56.00;44.25;;;;;;;;6487490;39;8895;-56
2021/11/11 07:42:31;;;;;;;;;58.25;47.00;;;;;;;;6490422;31;9072;-54
2021/11/11 07:48:36;;;;;;;;;54.25;44.00;;;;;;;;6489624;46;8941;-54
2021/11/11 07:54:38;;;;;;;;;49.25;44.75;;;;;;;;6489227;39;8925;-55
2021/11/11 08:00:40;;;;;;;;;45.00;35.75;;;;;;;;6489385;39;8923;-53
2021/11/11 08:06:43;;;;;;;;;46.50;41.25;;;;;;;;6489860;31;8913;-55
2021/11/11 08:12:45;;;;;;;;;50.75;44.25;;;;;;;;6490383;46;8943;-57
2021/11/11 08:18:47;;;;;;;;;42.75;41.00;;;;;;;;6491734;31;9053;-57
2021/11/11 08:24:50;;;;;;;;;49.25;44.75;;;;;;;;6489537;46;8832;-55
2021/11/11 08:30:52;;;;;;;;;60.50;47.25;;;;;;;;6491193;39;8857;-57
2021/11/11 08:36:54;;;;;;;;;58.75;45.00;;;;;;;;6490079;39;8868;-54
2021/11/11 08:42:59;;;;;;;;;54.50;43.25;;;;;;;;6489980;39;8917;-56
2021/11/11 08:49:08;;;;;;;;;44.25;41.25;;;;;;;;6491123;39;8989;-57
2021/11/11 08:55:15;;;;;;;;;50.25;44.50;;;;;;;;6488425;46;9003;-56
2021/11/11 09:01:17;;;;;;;;;34.00;29.00;;;;;;;;6492020;39;9696;-56
2021/11/11 09:07:20;;;;;;;;;34.50;31.00;;;;;;;;6487600;39;8941;-57
2021/11/11 09:13:23;;;;;;;;;32.75;29.00;;;;;;;;6487320;31;8944;-56
2021/11/11 09:19:25;;;;;;;;;38.00;32.75;;;;;;;;6486719;39;9066;-58
2021/11/11 09:25:30;;;;;;;;;32.25;28.50;;;;;;;;6486728;31;9149;-57
2021/11/11 09:31:38;;;;;;;;;30.00;29.25;;;;;;;;6487243;46;8880;-58
2021/11/11 09:37:41;;;;;;;;;29.25;27.00;;;;;;;;6486423;31;8998;-56
2021/11/11 09:43:44;;;;;;;;;27.75;25.50;;;;;;;;6485399;31;8970;-57
2021/11/11 09:49:46;;;;;;;;;26.75;23.75;;;;;;;;6486936;46;9000;-58
2021/11/11 10:02:10;;;;;;;;;26.25;24.25;;;;;;;;6487663;39;8860;-57
2021/11/11 10:08:49;;;;;;;;;22.50;22.50;;;;;;;;6487454;31;8913;-57
2021/11/11 10:15:10;;;;;;;;;23.50;20.50;;;;;;;;6487129;31;8994;-58
2021/11/11 10:21:21;;;;;;;;;21.50;21.00;;;;;;;;6485338;31;8926;-53
2021/11/11 10:27:47;;;;;;;;;17.75;16.25;;;;;;;;6484336;46;8947;-56
2021/11/11 10:34:10;;;;;;;;;18.50;18.50;;;;;;;;6484565;31;9028;-55
2021/11/11 10:40:27;;;;;;;;;17.50;16.75;;;;;;;;6485418;31;9811;-55
2021/11/11 10:46:51;;;;;;;;;28.50;25.00;;;;;;;;6485651;31;8963;-57
2021/11/11 10:52:58;;;;;;;;;24.75;22.25;;;;;;;;6484752;39;8949;-56
2021/11/11 10:59:13;;;;;;;;;19.50;19.25;;;;;;;;6484784;39;8957;-57
2021/11/11 11:05:15;;;;;;;;;23.25;21.50;;;;;;;;6484550;31;9029;-57
2021/11/11 11:11:30;;;;;;;;;20.50;20.00;;;;;;;;6484576;39;8908;-57
2021/11/11 11:17:33;;;;;;;;;30.25;27.00;;;;;;;;6484236;47;8951;-56
2021/11/11 11:24:05;;;;;;;;;18.50;18.50;;;;;;;;6485430;31;8990;-56
2021/11/11 11:30:13;;;;;;;;;23.00;20.67;;;;;;;;6484738;47;8943;-57
2021/11/11 11:36:18;;;;;;;;;26.25;23.50;;;;;;;;6483604;39;9639;-54
2021/11/11 11:42:30;;;;;;;;;25.75;24.00;;;;;;;;6484307;39;8919;-59
2021/11/11 11:48:36;;;;;;;;;25.75;22.50;;;;;;;;6482060;47;8956;-57
2021/11/11 11:54:52;;;;;;;;;23.67;16.67;;;;;;;;6484125;31;8899;-58
2021/11/11 12:01:13;;;;;;;;;20.00;18.33;;;;;;;;6484339;31;8950;-55
2021/11/11 12:13:42;;;;;;;;;24.00;24.00;;;;;;;;6486899;31;8979;-57
2021/11/11 12:39:36;;;;;;;;;20.33;16.67;;;;;;;;6486937;39;8902;-55
2021/11/11 12:45:41;;;;;;;;;21.33;20.33;;;;;;;;6486096;31;8959;-55
2021/11/11 12:52:23;;;;;;;;;15.50;14.00;;;;;;;;6486162;31;8902;-58
2021/11/11 12:58:34;;;;;;;;;23.67;20.67;;;;;;;;6486343;31;9547;-58
2021/11/11 13:04:45;;;;;;;;;14.33;12.33;;;;;;;;6486857;39;8926;-57
2021/11/11 13:11:07;;;;;;;;;19.67;19.67;;;;;;;;6485820;39;8936;-58
2021/11/11 13:17:13;;;;;;;;;22.33;20.33;;;;;;;;6485983;31;8955;-60
2021/11/11 13:23:27;;;;;;;;;14.67;13.33;;;;;;;;6486975;31;9080;-59
2021/11/11 14:02:56;;;;;;;;;22.75;21.25;;;;;;;;6481489;46;8930;-58
2021/11/11 16:03:48;;;;;;;;;32.25;31.75;;;;;;;;6489508;39;8942;-56
2021/11/11 16:28:46;;;;;;;;;43.25;40.25;;;;;;;;6489939;31;8952;-59
2021/11/11 16:34:50;;;;;;;;;64.25;48.25;;;;;;;;6515726;36;8953;-60
2021/11/11 16:41:08;;;;;;;;;56.00;48.00;;;;;;;;6490193;31;8920;-58
2021/11/11 16:47:11;;;;;;;;;60.00;48.50;;;;;;;;6489312;31;9246;-55
2021/11/11 16:53:14;;;;;;;;;64.50;53.50;;;;;;;;6488641;31;9391;-56
2021/11/11 16:59:18;;;;;;;;;57.75;48.50;;;;;;;;6488910;31;8923;-57
2021/11/11 17:05:25;;;;;;;;;62.25;51.50;;;;;;;;6488980;31;8870;-54
2021/11/11 17:11:27;;;;;;;;;74.75;60.50;;;;;;;;6489792;31;9053;-57
2021/11/11 17:17:30;;;;;;;;;77.50;60.00;;;;;;;;6489203;39;8887;-57
2021/11/11 17:23:44;;;;;;;;;75.25;59.50;;;;;;;;6489580;39;8870;-59
2021/11/11 17:29:47;;;;;;;;;80.50;65.00;;;;;;;;6488276;46;8909;-56
2021/11/11 17:35:50;;;;;;;;;73.25;59.50;;;;;;;;6488213;39;8871;-55
2021/11/11 17:41:53;;;;;;;;;77.00;61.75;;;;;;;;6488503;31;8951;-55
2021/11/11 17:47:57;;;;;;;;;79.25;61.00;;;;;;;;6488030;31;8907;-57
2021/11/11 17:54:20;;;;;;;;;70.00;54.00;;;;;;;;6487809;39;8877;-58
2021/11/11 18:00:22;;;;;;;;;61.00;50.50;;;;;;;;6488622;31;8880;-58
2021/11/11 18:18:39;;;;;;;;;63.50;52.00;;;;;;;;6487496;39;8861;-56
2021/11/11 18:24:41;;;;;;;;;67.00;54.50;;;;;;;;6488961;39;8855;-57
2021/11/11 18:30:44;;;;;;;;;66.25;56.00;;;;;;;;6488236;31;8916;-58
2021/11/11 18:36:54;;;;;;;;;77.50;59.25;;;;;;;;6535081;31;8915;-57
2021/11/11 18:43:10;;;;;;;;;68.50;57.25;;;;;;;;6486227;39;8961;-55
2021/11/11 18:49:14;;;;;;;;;65.00;53.00;;;;;;;;6488059;39;8891;-57
2021/11/11 18:55:16;;;;;;;;;68.75;54.25;;;;;;;;6487927;31;8875;-56
2021/11/11 19:01:21;;;;;;;;;64.00;53.00;;;;;;;;6488056;31;9275;-55
2021/11/11 19:07:33;;;;;;;;;60.50;52.25;;;;;;;;6488828;39;8922;-57
2021/11/11 19:13:42;;;;;;;;;67.50;53.75;;;;;;;;6489350;39;9516;-55
2021/11/11 19:19:47;;;;;;;;;68.75;54.75;;;;;;;;6488941;39;8834;-54
2021/11/11 19:25:50;;;;;;;;;64.75;52.25;;;;;;;;6490707;39;9515;-57
2021/11/11 19:31:58;;;;;;;;;65.75;54.00;;;;;;;;6490116;39;8953;-56
2021/11/11 19:38:13;;;;;;;;;69.50;56.00;;;;;;;;6489988;31;8904;-57
2021/11/11 20:46:49;;;;;;;;;59.25;50.75;;;;;;;;6489020;39;8929;-56
2021/11/11 21:12:00;;;;;;;;;57.00;48.25;;;;;;;;6488545;31;8971;-56
2021/11/11 21:24:06;;;;;;;;;56.75;48.25;;;;;;;;6488789;46;8910;-59
2021/11/11 21:30:14;;;;;;;;;62.25;50.00;;;;;;;;6488182;31;8935;-55
2021/11/11 21:37:08;;;;;;;;;59.75;49.25;;;;;;;;6487965;31;9458;-56
2021/11/11 21:42:42;;;;;;;;;62.00;52.00;;;;;;;;6488286;39;8974;-56
2021/11/11 21:48:45;;;;;;;;;67.00;51.50;;;;;;;;6488132;46;8903;-56
2021/11/11 21:55:03;;;;;;;;;64.00;50.75;;;;;;;;6489082;39;8947;-55
2021/11/11 22:32:19;;;;;;;;;64.50;50.25;;;;;;;;6487535;39;8932;-56
2021/11/11 22:38:21;;;;;;;;;64.25;51.50;;;;;;;;6488569;39;8875;-57
2021/11/11 22:44:25;;;;;;;;;54.50;47.50;;;;;;;;6487762;46;8905;-55
2021/11/11 22:50:29;;;;;;;;;67.25;54.25;;;;;;;;6487739;47;8909;-55
2021/11/11 22:57:17;;;;;;;;;67.00;52.25;;;;;;;;6488199;39;8902;-54
2021/11/11 23:03:09;;;;;;;;;69.00;57.75;;;;;;;;6488067;39;9539;-55
2021/11/11 23:35:00;;;;;;;;;67.25;56.00;;;;;;;;6487392;39;9875;-54
2021/11/11 23:41:02;;;;;;;;;76.25;59.00;;;;;;;;6487179;31;8912;-55
2021/11/11 23:47:14;;;;;;;;;67.75;57.00;;;;;;;;6486894;39;8834;-57
